LFMT 221500Z AUTO 22005KT CAVOK 16/05 Q1031 NOSIG

ElémentsDécodage
LFMT Station météo située sur l'aérodrome de MONTPELLIER Méditerranée
221500Z émis le 22 du mois à 15h00 UTC
AUTO Bulletin édité par un automate
22005KT vent du 220°, 05 noeuds
CAVOK Ceiling And Visibility OK
- Visibilité de 10 Km ou plus
- Pas de nuage au-dessous de 1500m ou au-dessous de l'altitude minimale du secteur la plus élevée (si>1500m) et absence de CB
- pas de temps présent significatif
16/05 température 16°C, point de rosée 05°C
 soit une humidité relative de 48%
Q1031 la pression au niveau de la mer (QNH) est de 1031 hPa
NOSIG Pas de changement significatif prévu au cours des deux heures suivant l'heure de l'observation